Time;durP1;ratioP1;P1;durP2;ratioP2;P2;SDS_P1;SDS_P2;PMS_P1;PMS_P2;Temp;Humidity;BMP_temperature;BMP_pressure;BME280_temperature;BME280_humidity;BME280_pressure;Samples;Min_cycle;Max_cycle;Signal;HPM_P1;HPM_P2
2022/03/21 00:01:57;;;;;;;21.93;10.93;;;;;;;;;;5002780;28;20110;-80
2022/03/21 00:04:23;;;;;;;23.30;10.83;;;;;;;;;;5004734;28;20060;-78
2022/03/21 00:06:49;;;;;;;23.87;12.23;;;;;;;;;;5010529;28;20050;-78
2022/03/21 00:09:15;;;;;;;18.60;10.03;;;;;;;;;;5003788;28;20034;-80
2022/03/21 00:11:40;;;;;;;19.70;9.70;;;;;;;;;;5006545;28;20048;-78
2022/03/21 00:14:06;;;;;;;26.00;11.33;;;;;;;;;;5001029;28;20610;-79
2022/03/21 00:16:32;;;;;;;21.83;9.20;;;;;;;;;;5007323;28;20080;-79
2022/03/21 00:18:58;;;;;;;21.33;10.20;;;;;;;;;;4999709;28;20478;-79
2022/03/21 00:21:23;;;;;;;17.80;9.93;;;;;;;;;;5005222;28;20036;-80
2022/03/21 00:23:49;;;;;;;17.40;9.70;;;;;;;;;;4999137;28;20044;-80
2022/03/21 00:26:18;;;;;;;19.63;9.63;;;;;;;;;;4999459;28;20029;-78
2022/03/21 00:28:43;;;;;;;20.63;10.63;;;;;;;;;;5005119;28;20057;-79
2022/03/21 00:31:09;;;;;;;18.43;9.03;;;;;;;;;;5000459;28;20034;-80
2022/03/21 00:33:34;;;;;;;17.77;9.40;;;;;;;;;;5005104;28;20033;-78
2022/03/21 00:36:00;;;;;;;18.20;9.63;;;;;;;;;;5006539;28;20045;-78
2022/03/21 00:38:26;;;;;;;23.30;9.63;;;;;;;;;;4999911;28;20026;-80
2022/03/21 00:40:52;;;;;;;16.10;9.37;;;;;;;;;;5004536;28;20431;-81
2022/03/21 00:43:22;;;;;;;22.30;8.93;;;;;;;;;;4998745;28;20033;-78
2022/03/21 00:45:52;;;;;;;19.43;9.77;;;;;;;;;;5008582;28;20396;-81
2022/03/21 00:48:18;;;;;;;18.97;8.77;;;;;;;;;;4998790;28;20361;-79
2022/03/21 00:50:44;;;;;;;19.57;9.73;;;;;;;;;;4998744;28;20053;-79
2022/03/21 00:53:10;;;;;;;21.57;9.13;;;;;;;;;;5004818;28;20470;-78
2022/03/21 00:55:37;;;;;;;22.20;10.23;;;;;;;;;;4998678;28;20030;-82
2022/03/21 00:58:03;;;;;;;18.93;8.93;;;;;;;;;;4999966;28;20053;-80
2022/03/21 01:00:30;;;;;;;19.63;9.13;;;;;;;;;;5004260;28;20061;-80
2022/03/21 01:02:59;;;;;;;15.60;8.40;;;;;;;;;;5004077;28;20034;-79
2022/03/21 01:05:26;;;;;;;19.70;9.90;;;;;;;;;;4999204;28;20082;-78
2022/03/21 01:07:52;;;;;;;18.57;9.87;;;;;;;;;;4997964;28;20105;-78
2022/03/21 01:10:20;;;;;;;18.77;9.13;;;;;;;;;;5003439;28;20120;-79
2022/03/21 01:12:47;;;;;;;16.93;7.63;;;;;;;;;;4998750;28;20030;-79
2022/03/21 01:15:14;;;;;;;16.43;8.70;;;;;;;;;;5004286;28;20052;-79
2022/03/21 01:17:42;;;;;;;23.27;10.23;;;;;;;;;;5004211;28;20286;-78
2022/03/21 01:20:08;;;;;;;23.10;9.77;;;;;;;;;;5002805;28;20034;-77
2022/03/21 01:22:34;;;;;;;19.33;9.70;;;;;;;;;;5010848;28;20117;-80
2022/03/21 01:25:00;;;;;;;19.67;8.93;;;;;;;;;;5012141;28;20494;-79
2022/03/21 01:27:26;;;;;;;18.73;9.17;;;;;;;;;;5008240;28;20033;-78
2022/03/21 01:29:51;;;;;;;15.43;9.23;;;;;;;;;;5002363;28;20124;-80
2022/03/21 01:32:17;;;;;;;24.93;9.50;;;;;;;;;;5004725;28;20116;-78
2022/03/21 01:34:43;;;;;;;20.10;9.90;;;;;;;;;;4999871;28;20030;-79
2022/03/21 01:37:09;;;;;;;21.60;8.50;;;;;;;;;;5004319;28;20080;-78
2022/03/21 01:39:34;;;;;;;13.90;8.53;;;;;;;;;;4998155;28;20034;-79
2022/03/21 01:42:00;;;;;;;17.20;8.57;;;;;;;;;;5003356;28;20030;-79
2022/03/21 01:44:25;;;;;;;17.50;8.33;;;;;;;;;;4998497;28;20039;-79
2022/03/21 01:46:51;;;;;;;21.37;8.90;;;;;;;;;;4987161;28;20065;-79
2022/03/21 01:49:17;;;;;;;14.00;7.90;;;;;;;;;;5003562;28;20076;-79
2022/03/21 01:51:43;;;;;;;18.27;8.57;;;;;;;;;;5003316;28;20029;-80
2022/03/21 01:56:54;;;;;;;19.47;8.13;;;;;;;;;;5002501;28;20049;-79
2022/03/21 01:59:21;;;;;;;17.33;8.33;;;;;;;;;;4999039;28;20030;-78
2022/03/21 02:01:47;;;;;;;20.63;8.77;;;;;;;;;;5000702;28;20120;-79
2022/03/21 02:04:13;;;;;;;20.13;7.80;;;;;;;;;;5003261;28;20041;-79
2022/03/21 02:06:39;;;;;;;18.17;9.07;;;;;;;;;;4998821;28;20046;-79
2022/03/21 02:09:09;;;;;;;20.57;9.37;;;;;;;;;;5000554;28;20033;-79
2022/03/21 02:11:36;;;;;;;19.50;8.77;;;;;;;;;;4999112;28;20037;-79
2022/03/21 02:14:03;;;;;;;17.63;8.33;;;;;;;;;;5000097;28;20044;-78
2022/03/21 02:16:31;;;;;;;18.97;8.53;;;;;;;;;;5004153;28;20293;-79
2022/03/21 02:19:08;;;;;;;18.03;8.83;;;;;;;;;;4999694;28;20100;-79
2022/03/21 02:22:03;;;;;;;18.10;8.27;;;;;;;;;;5004223;28;20021;-80
2022/03/21 02:24:58;;;;;;;17.40;8.47;;;;;;;;;;4996429;28;20034;-78
2022/03/21 02:27:26;;;;;;;22.30;8.27;;;;;;;;;;5002744;28;20032;-80
2022/03/21 02:29:52;;;;;;;25.93;8.67;;;;;;;;;;4996158;28;20034;-80
2022/03/21 02:32:19;;;;;;;15.23;9.00;;;;;;;;;;4998547;28;20096;-78
2022/03/21 02:34:46;;;;;;;17.87;8.87;;;;;;;;;;4996856;28;20034;-78
2022/03/21 02:37:16;;;;;;;17.83;8.20;;;;;;;;;;5002159;28;20033;-80
2022/03/21 02:39:42;;;;;;;17.43;10.00;;;;;;;;;;4997865;28;20033;-79
2022/03/21 02:42:09;;;;;;;20.97;8.80;;;;;;;;;;4995825;28;20036;-78
2022/03/21 02:44:39;;;;;;;19.80;9.53;;;;;;;;;;4996285;28;20030;-79
2022/03/21 02:47:06;;;;;;;17.40;7.73;;;;;;;;;;5000587;28;20065;-76
2022/03/21 02:49:33;;;;;;;16.70;8.20;;;;;;;;;;5002599;28;20062;-79
2022/03/21 02:52:01;;;;;;;15.37;8.20;;;;;;;;;;5002966;28;20030;-79
2022/03/21 02:54:28;;;;;;;18.73;9.03;;;;;;;;;;5000917;28;20027;-78
2022/03/21 02:56:55;;;;;;;21.33;8.60;;;;;;;;;;5006258;28;20041;-79
2022/03/21 02:59:20;;;;;;;18.07;8.77;;;;;;;;;;5018579;28;20080;-80
2022/03/21 03:01:46;;;;;;;17.63;9.10;;;;;;;;;;5017405;28;20030;-78
2022/03/21 03:04:11;;;;;;;16.63;8.37;;;;;;;;;;4997885;28;20034;-78
2022/03/21 03:06:40;;;;;;;23.60;8.77;;;;;;;;;;5004079;28;20117;-78
2022/03/21 03:09:07;;;;;;;18.43;8.87;;;;;;;;;;4999116;28;20030;-79
2022/03/21 03:11:36;;;;;;;20.73;8.73;;;;;;;;;;5003171;28;20033;-79
2022/03/21 03:14:03;;;;;;;19.27;8.47;;;;;;;;;;5002919;28;20034;-79
2022/03/21 03:16:28;;;;;;;20.33;10.00;;;;;;;;;;4999583;28;20029;-79
2022/03/21 03:18:54;;;;;;;18.90;8.63;;;;;;;;;;5007341;28;20056;-79
2022/03/21 03:21:23;;;;;;;19.47;8.37;;;;;;;;;;5026412;28;20044;-76
2022/03/21 03:23:50;;;;;;;22.70;9.30;;;;;;;;;;5026362;28;20049;-76
2022/03/21 03:26:16;;;;;;;19.27;8.00;;;;;;;;;;5005127;28;20462;-79
2022/03/21 03:28:43;;;;;;;22.30;8.93;;;;;;;;;;5001765;28;20509;-77
2022/03/21 03:31:09;;;;;;;18.07;8.80;;;;;;;;;;5007342;28;20038;-78
2022/03/21 03:33:36;;;;;;;15.77;8.10;;;;;;;;;;5002802;28;20029;-79
2022/03/21 03:36:01;;;;;;;17.93;8.87;;;;;;;;;;4996113;28;20022;-79
2022/03/21 03:38:27;;;;;;;13.87;8.03;;;;;;;;;;4999218;28;20056;-79
2022/03/21 03:40:54;;;;;;;17.77;8.53;;;;;;;;;;5001736;28;20452;-79
2022/03/21 03:43:20;;;;;;;18.90;9.63;;;;;;;;;;5005433;28;20027;-79
2022/03/21 03:45:49;;;;;;;18.50;9.33;;;;;;;;;;5005303;28;20472;-79
2022/03/21 03:48:15;;;;;;;17.07;9.13;;;;;;;;;;4999436;28;20038;-81
2022/03/21 03:50:41;;;;;;;17.70;9.27;;;;;;;;;;4974938;28;20190;-78
2022/03/21 03:53:07;;;;;;;19.53;8.63;;;;;;;;;;5002075;28;20370;-79
2022/03/21 03:55:32;;;;;;;23.33;9.70;;;;;;;;;;5000481;28;20029;-79
2022/03/21 03:57:58;;;;;;;26.27;9.40;;;;;;;;;;4998222;28;20018;-78
2022/03/21 04:00:23;;;;;;;16.93;8.47;;;;;;;;;;5000033;28;20137;-79
2022/03/21 04:05:35;;;;;;;16.30;8.17;;;;;;;;;;4999472;28;20049;-78
2022/03/21 04:08:01;;;;;;;18.80;9.03;;;;;;;;;;4995108;28;20076;-79
2022/03/21 04:10:26;;;;;;;18.80;9.57;;;;;;;;;;4998436;28;20560;-77
2022/03/21 04:12:52;;;;;;;15.63;7.83;;;;;;;;;;5002970;28;20030;-78
2022/03/21 04:15:19;;;;;;;22.07;9.83;;;;;;;;;;4999539;28;20022;-79
2022/03/21 04:17:45;;;;;;;20.00;9.17;;;;;;;;;;4999807;28;20034;-78
2022/03/21 04:20:12;;;;;;;19.03;9.87;;;;;;;;;;4999547;28;20430;-78
2022/03/21 04:22:38;;;;;;;22.00;9.70;;;;;;;;;;5003500;28;20289;-80
2022/03/21 04:25:06;;;;;;;20.97;9.57;;;;;;;;;;4994957;28;20025;-78
2022/03/21 04:27:32;;;;;;;22.80;10.10;;;;;;;;;;4998105;28;20033;-79
2022/03/21 04:29:58;;;;;;;17.37;8.87;;;;;;;;;;4982507;28;20026;-77
2022/03/21 04:32:25;;;;;;;20.60;7.53;;;;;;;;;;4998342;28;20271;-79
2022/03/21 04:34:51;;;;;;;16.23;8.50;;;;;;;;;;5000110;28;20049;-79
2022/03/21 04:37:17;;;;;;;15.30;8.93;;;;;;;;;;4998313;28;20161;-79
2022/03/21 04:39:42;;;;;;;16.27;8.07;;;;;;;;;;4995261;28;20026;-80
2022/03/21 04:42:08;;;;;;;18.37;9.00;;;;;;;;;;4999244;28;20045;-78
2022/03/21 04:44:34;;;;;;;15.67;8.10;;;;;;;;;;5005850;28;20385;-78
2022/03/21 04:46:59;;;;;;;20.90;9.80;;;;;;;;;;5003685;28;20091;-78
2022/03/21 04:49:25;;;;;;;20.70;8.77;;;;;;;;;;5001962;28;20437;-78
2022/03/21 04:51:51;;;;;;;20.13;9.63;;;;;;;;;;5002395;28;20038;-80
2022/03/21 04:54:16;;;;;;;15.17;8.07;;;;;;;;;;4998275;28;20180;-78
2022/03/21 04:56:42;;;;;;;14.53;8.73;;;;;;;;;;5000842;28;20030;-78
2022/03/21 04:59:08;;;;;;;15.80;8.57;;;;;;;;;;5003759;28;20105;-77
2022/03/21 05:01:34;;;;;;;12.67;7.97;;;;;;;;;;5002018;28;20311;-78
2022/03/21 05:04:00;;;;;;;14.93;8.47;;;;;;;;;;5004246;28;20041;-79
2022/03/21 05:06:26;;;;;;;14.50;7.67;;;;;;;;;;5000346;28;20142;-78
2022/03/21 05:08:51;;;;;;;18.87;8.47;;;;;;;;;;5003603;28;20113;-79
2022/03/21 05:11:17;;;;;;;19.47;8.33;;;;;;;;;;5001293;28;20034;-79
2022/03/21 05:13:43;;;;;;;19.30;9.30;;;;;;;;;;5001889;28;20022;-78
2022/03/21 05:16:08;;;;;;;40.27;11.37;;;;;;;;;;5021406;28;20068;-75
2022/03/21 05:18:34;;;;;;;20.13;8.67;;;;;;;;;;5026207;28;20038;-78
2022/03/21 05:21:04;;;;;;;23.70;9.03;;;;;;;;;;5015186;28;20109;-79
2022/03/21 05:31:42;;;;;;;30.37;8.87;;;;;;;;;;4999942;28;20120;-79
2022/03/21 05:36:53;;;;;;;16.30;8.43;;;;;;;;;;5005057;28;20041;-78
2022/03/21 05:39:19;;;;;;;16.10;8.10;;;;;;;;;;5004385;28;20079;-80
2022/03/21 05:41:44;;;;;;;18.70;8.93;;;;;;;;;;5001842;28;20027;-80
2022/03/21 05:44:11;;;;;;;22.73;9.13;;;;;;;;;;5003329;28;20062;-80
2022/03/21 05:46:37;;;;;;;18.30;8.57;;;;;;;;;;5007545;28;20018;-79
2022/03/21 05:49:04;;;;;;;16.47;8.50;;;;;;;;;;5009856;28;20357;-77
2022/03/21 05:51:35;;;;;;;16.53;8.33;;;;;;;;;;5009728;28;20051;-78
2022/03/21 05:54:08;;;;;;;18.33;10.33;;;;;;;;;;5010801;28;20044;-78
2022/03/21 05:56:38;;;;;;;22.07;8.03;;;;;;;;;;4998797;28;20410;-77
2022/03/21 06:01:56;;;;;;;18.70;8.05;;;;;;;;;;5007706;28;20041;-77
2022/03/21 06:04:24;;;;;;;17.90;9.00;;;;;;;;;;5008083;28;20176;-77
2022/03/21 06:06:49;;;;;;;19.40;7.23;;;;;;;;;;5009090;28;20053;-78
2022/03/21 06:09:15;;;;;;;30.43;11.47;;;;;;;;;;5007188;28;20391;-75
2022/03/21 06:11:42;;;;;;;18.53;9.47;;;;;;;;;;5019333;28;20044;-77
2022/03/21 06:14:09;;;;;;;16.53;8.33;;;;;;;;;;5023862;28;20044;-75
2022/03/21 06:16:35;;;;;;;20.40;9.23;;;;;;;;;;5001342;28;20029;-73
2022/03/21 06:19:01;;;;;;;24.87;9.47;;;;;;;;;;5009221;28;20509;-76
2022/03/21 06:21:30;;;;;;;19.20;8.90;;;;;;;;;;5009619;28;20104;-74
2022/03/21 06:23:56;;;;;;;23.53;9.10;;;;;;;;;;5025721;28;20498;-76
2022/03/21 06:26:22;;;;;;;18.07;8.97;;;;;;;;;;5003987;28;20022;-75
2022/03/21 06:28:49;;;;;;;19.87;9.73;;;;;;;;;;5006341;28;20401;-79
2022/03/21 06:31:15;;;;;;;17.17;8.27;;;;;;;;;;5003235;28;20918;-75
2022/03/21 06:33:41;;;;;;;20.50;8.67;;;;;;;;;;5018009;28;20374;-74
2022/03/21 06:36:07;;;;;;;19.73;8.33;;;;;;;;;;5004938;28;20041;-78
2022/03/21 06:38:33;;;;;;;18.80;7.63;;;;;;;;;;5007555;28;20120;-77
2022/03/21 06:41:01;;;;;;;18.50;8.53;;;;;;;;;;5000107;28;20441;-81
2022/03/21 06:43:28;;;;;;;22.17;8.87;;;;;;;;;;5002357;28;20042;-79
2022/03/21 06:45:57;;;;;;;20.03;8.67;;;;;;;;;;5006711;28;20114;-74
2022/03/21 06:48:24;;;;;;;16.10;8.27;;;;;;;;;;4998597;28;20030;-78
2022/03/21 06:50:51;;;;;;;17.70;8.87;;;;;;;;;;4989274;28;21129;-78
2022/03/21 06:53:18;;;;;;;23.67;9.07;;;;;;;;;;4998516;28;20022;-78
2022/03/21 06:55:48;;;;;;;19.50;8.53;;;;;;;;;;5005318;28;20026;-79
2022/03/21 06:58:16;;;;;;;16.10;8.30;;;;;;;;;;4975187;28;20037;-77
2022/03/21 07:00:43;;;;;;;15.83;8.27;;;;;;;;;;5004586;28;20026;-78
2022/03/21 07:03:09;;;;;;;17.87;8.60;;;;;;;;;;5000732;28;20030;-78
2022/03/21 07:05:39;;;;;;;16.60;8.00;;;;;;;;;;5006186;28;20049;-80
2022/03/21 07:08:06;;;;;;;16.13;7.73;;;;;;;;;;5001275;28;20042;-78
2022/03/21 07:10:33;;;;;;;14.30;8.13;;;;;;;;;;5001150;28;20030;-73
2022/03/21 07:13:06;;;;;;;22.13;8.13;;;;;;;;;;5007145;28;20029;-75
2022/03/21 07:15:40;;;;;;;18.27;7.40;;;;;;;;;;5005394;28;20026;-78
2022/03/21 07:18:06;;;;;;;16.27;8.17;;;;;;;;;;5003396;28;20044;-77
2022/03/21 07:20:48;;;;;;;16.40;7.43;;;;;;;;;;5003313;28;20114;-77
2022/03/21 07:23:19;;;;;;;13.98;7.97;;;;;;;;;;5005104;28;20029;-75
2022/03/21 07:25:47;;;;;;;16.50;7.82;;;;;;;;;;5002472;28;20697;-80
2022/03/21 07:28:13;;;;;;;14.37;7.83;;;;;;;;;;5009732;28;20470;-76
2022/03/21 07:30:39;;;;;;;13.23;7.23;;;;;;;;;;4992338;28;20030;-75
2022/03/21 07:33:05;;;;;;;15.73;7.37;;;;;;;;;;5000735;28;20179;-75
2022/03/21 07:35:34;;;;;;;17.67;8.57;;;;;;;;;;5001648;28;20057;-77
2022/03/21 07:38:02;;;;;;;13.90;8.00;;;;;;;;;;5003988;28;20038;-77
2022/03/21 07:40:28;;;;;;;17.00;8.03;;;;;;;;;;4984863;28;20096;-75
2022/03/21 07:43:01;;;;;;;17.93;8.73;;;;;;;;;;5001718;28;20042;-75
2022/03/21 07:48:12;;;;;;;13.20;7.47;;;;;;;;;;5002289;28;20179;-77
2022/03/21 07:50:38;;;;;;;18.07;8.60;;;;;;;;;;4997237;28;20038;-75
2022/03/21 07:53:04;;;;;;;18.27;9.57;;;;;;;;;;5004140;28;20124;-77
2022/03/21 07:55:36;;;;;;;13.80;7.47;;;;;;;;;;5000013;28;20038;-76
2022/03/21 07:58:03;;;;;;;17.95;7.68;;;;;;;;;;5004056;28;20097;-72
2022/03/21 08:00:34;;;;;;;13.40;7.20;;;;;;;;;;4973893;28;20041;-76
2022/03/21 08:03:00;;;;;;;15.55;7.38;;;;;;;;;;4990957;28;20034;-76
2022/03/21 08:05:30;;;;;;;15.77;6.93;;;;;;;;;;4991825;28;20426;-76
2022/03/21 08:07:56;;;;;;;15.83;8.10;;;;;;;;;;4999118;28;20096;-74
2022/03/21 08:10:24;;;;;;;14.00;7.07;;;;;;;;;;5012942;28;20037;-75
2022/03/21 08:12:50;;;;;;;14.43;7.53;;;;;;;;;;5000026;28;20038;-75
2022/03/21 08:15:17;;;;;;;15.17;8.70;;;;;;;;;;4995960;28;20038;-76
2022/03/21 08:17:59;;;;;;;13.93;7.87;;;;;;;;;;5007574;28;20037;-75
2022/03/21 08:20:33;;;;;;;17.88;8.60;;;;;;;;;;5002982;28;20049;-76
2022/03/21 08:23:11;;;;;;;14.80;7.70;;;;;;;;;;5001005;28;20052;-75
2022/03/21 08:25:46;;;;;;;18.10;9.33;;;;;;;;;;4995751;28;20037;-74
2022/03/21 08:28:20;;;;;;;18.67;8.70;;;;;;;;;;4995010;28;20033;-77
2022/03/21 08:30:46;;;;;;;26.87;8.57;;;;;;;;;;5012132;28;20478;-75
2022/03/21 08:33:15;;;;;;;15.77;8.73;;;;;;;;;;4997650;28;20397;-77
2022/03/21 08:35:42;;;;;;;13.87;8.37;;;;;;;;;;4997119;28;20037;-76
2022/03/21 08:38:10;;;;;;;15.07;8.73;;;;;;;;;;4996644;28;20026;-77
2022/03/21 08:40:39;;;;;;;18.03;10.37;;;;;;;;;;4995939;28;20048;-75
2022/03/21 08:43:07;;;;;;;16.17;8.10;;;;;;;;;;4978351;28;20034;-75
2022/03/21 08:45:35;;;;;;;20.97;8.33;;;;;;;;;;4997883;28;20085;-76
2022/03/21 08:48:09;;;;;;;24.70;8.53;;;;;;;;;;4979923;28;20243;-75
2022/03/21 08:50:38;;;;;;;18.93;7.93;;;;;;;;;;5000505;28;20197;-78
2022/03/21 08:53:08;;;;;;;12.63;7.10;;;;;;;;;;4997729;28;20120;-76
2022/03/21 08:55:37;;;;;;;57.53;11.47;;;;;;;;;;4998188;28;20021;-76
2022/03/21 08:58:04;;;;;;;15.40;7.13;;;;;;;;;;5000247;28;20029;-76
2022/03/21 09:00:32;;;;;;;13.60;6.07;;;;;;;;;;4998587;28;20034;-76
2022/03/21 09:03:08;;;;;;;14.80;5.87;;;;;;;;;;4996317;28;20123;-77
2022/03/21 09:05:34;;;;;;;11.27;6.33;;;;;;;;;;4999019;28;20084;-77
2022/03/21 09:08:01;;;;;;;11.40;5.60;;;;;;;;;;4999754;28;20022;-75
2022/03/21 09:10:32;;;;;;;12.30;7.50;;;;;;;;;;4984495;28;20084;-77
2022/03/21 09:12:58;;;;;;;13.37;6.37;;;;;;;;;;4993314;28;20097;-76
2022/03/21 09:15:25;;;;;;;10.20;6.30;;;;;;;;;;5009132;28;20030;-77
2022/03/21 09:17:51;;;;;;;10.63;5.97;;;;;;;;;;5005665;28;20022;-76
2022/03/21 09:20:16;;;;;;;8.30;5.80;;;;;;;;;;5006358;28;20032;-77
2022/03/21 09:22:46;;;;;;;9.30;6.30;;;;;;;;;;5005675;28;20189;-78
2022/03/21 09:25:12;;;;;;;15.30;6.83;;;;;;;;;;5009074;28;20022;-77
2022/03/21 09:27:40;;;;;;;11.50;6.40;;;;;;;;;;5013623;28;21980;-78
2022/03/21 09:30:06;;;;;;;16.10;5.63;;;;;;;;;;5003917;28;20385;-76
2022/03/21 09:32:32;;;;;;;15.27;6.80;;;;;;;;;;4991975;28;20499;-76
2022/03/21 09:34:59;;;;;;;11.80;6.27;;;;;;;;;;5002143;28;20046;-74
2022/03/21 09:37:25;;;;;;;10.23;6.57;;;;;;;;;;5002155;28;20175;-77
2022/03/21 09:39:51;;;;;;;14.73;7.33;;;;;;;;;;4998443;28;20493;-78
2022/03/21 09:42:17;;;;;;;11.27;6.83;;;;;;;;;;5028003;28;20030;-76
2022/03/21 09:44:45;;;;;;;17.23;8.27;;;;;;;;;;5002572;28;20025;-77
2022/03/21 09:49:57;;;;;;;10.63;6.63;;;;;;;;;;4996534;28;20041;-76
2022/03/21 09:52:24;;;;;;;11.17;6.53;;;;;;;;;;4996652;28;20034;-77
2022/03/21 09:54:52;;;;;;;10.53;6.27;;;;;;;;;;4989321;28;20792;-76
2022/03/21 09:57:19;;;;;;;11.70;5.97;;;;;;;;;;4984621;28;20042;-75
2022/03/21 09:59:46;;;;;;;11.77;5.73;;;;;;;;;;4998713;28;20033;-77
2022/03/21 10:02:18;;;;;;;13.13;5.37;;;;;;;;;;4997493;28;20072;-76
2022/03/21 10:04:46;;;;;;;9.63;5.80;;;;;;;;;;5003082;28;20030;-76
2022/03/21 10:07:12;;;;;;;7.57;5.83;;;;;;;;;;4982852;28;20153;-74
2022/03/21 10:09:40;;;;;;;11.67;6.23;;;;;;;;;;5002187;28;20036;-78
2022/03/21 10:12:11;;;;;;;13.20;8.03;;;;;;;;;;4996192;28;20037;-78
2022/03/21 10:14:38;;;;;;;10.02;6.07;;;;;;;;;;5001516;28;20030;-75
2022/03/21 10:17:15;;;;;;;9.87;5.90;;;;;;;;;;5001161;28;20096;-82
2022/03/21 10:19:46;;;;;;;17.37;6.70;;;;;;;;;;5001850;28;20425;-76
2022/03/21 10:22:20;;;;;;;8.87;5.70;;;;;;;;;;4995282;28;20042;-75
2022/03/21 10:24:52;;;;;;;13.57;5.30;;;;;;;;;;5002570;28;20128;-78
2022/03/21 10:27:37;;;;;;;;;;;;;;;;;;4997305;28;20108;-77
2022/03/21 10:30:09;;;;;;;8.23;5.03;;;;;;;;;;5013459;28;19925;-76
2022/03/21 10:32:54;;;;;;;7.57;4.55;;;;;;;;;;5002133;28;20550;-75
2022/03/21 10:35:23;;;;;;;8.70;5.20;;;;;;;;;;5000202;28;20120;-73
2022/03/21 10:38:03;;;;;;;9.53;5.07;;;;;;;;;;5001012;28;20036;-77
2022/03/21 10:40:48;;;;;;;9.73;5.50;;;;;;;;;;4994873;28;20025;-77
2022/03/21 10:43:16;;;;;;;15.10;6.10;;;;;;;;;;4999653;28;20338;-77
2022/03/21 10:45:53;;;;;;;8.53;5.30;;;;;;;;;;5003920;28;20591;-76
2022/03/21 10:48:32;;;;;;;9.47;4.80;;;;;;;;;;4997978;28;20371;-74
2022/03/21 10:51:04;;;;;;;8.23;5.20;;;;;;;;;;4998355;28;20377;-76
2022/03/21 10:53:40;;;;;;;8.03;4.80;;;;;;;;;;4997694;28;20604;-77
2022/03/21 10:56:11;;;;;;;7.17;5.20;;;;;;;;;;5001417;28;20148;-76
2022/03/21 10:58:48;;;;;;;10.40;5.80;;;;;;;;;;5000429;28;20030;-74
2022/03/21 11:01:22;;;;;;;11.13;5.70;;;;;;;;;;5001935;28;20033;-73
2022/03/21 11:03:56;;;;;;;11.53;5.00;;;;;;;;;;5002416;28;20049;-76
2022/03/21 11:06:23;;;;;;;8.50;4.83;;;;;;;;;;5002517;28;20164;-76
2022/03/21 11:08:54;;;;;;;10.63;5.67;;;;;;;;;;4996690;28;20062;-77
2022/03/21 11:11:29;;;;;;;7.30;4.20;;;;;;;;;;4997128;28;20050;-76
2022/03/21 11:13:58;;;;;;;7.05;5.28;;;;;;;;;;4996372;28;20113;-75
2022/03/21 11:16:24;;;;;;;14.27;5.10;;;;;;;;;;4996849;28;20100;-75
2022/03/21 11:19:10;;;;;;;7.32;4.68;;;;;;;;;;4996507;28;20133;-73
2022/03/21 11:21:53;;;;;;;8.13;4.90;;;;;;;;;;4998198;28;20156;-76
2022/03/21 11:24:19;;;;;;;10.83;5.10;;;;;;;;;;4978334;28;20398;-74
2022/03/21 11:27:26;;;;;;;7.60;4.90;;;;;;;;;;5000687;28;20458;-76
2022/03/21 11:30:11;;;;;;;11.00;5.50;;;;;;;;;;4997010;28;20496;-75
2022/03/21 11:32:59;;;;;;;9.55;5.38;;;;;;;;;;5001131;28;20041;-76
2022/03/21 11:35:32;;;;;;;12.15;6.18;;;;;;;;;;5002087;28;20040;-76
2022/03/21 11:38:32;;;;;;;8.33;5.23;;;;;;;;;;4980194;28;20092;-78
2022/03/21 11:41:21;;;;;;;10.48;5.50;;;;;;;;;;4993484;28;20454;-76
2022/03/21 11:44:14;;;;;;;7.75;5.65;;;;;;;;;;4999922;28;20482;-76
2022/03/21 11:46:47;;;;;;;12.75;5.13;;;;;;;;;;5002029;28;20156;-77
2022/03/21 11:49:22;;;;;;;9.07;5.50;;;;;;;;;;5001459;28;20061;-77
2022/03/21 11:52:24;;;;;;;7.07;4.95;;;;;;;;;;4996594;28;20064;-77
2022/03/21 11:54:54;;;;;;;9.40;5.15;;;;;;;;;;5003575;28;20034;-76
2022/03/21 11:57:29;;;;;;;11.07;4.90;;;;;;;;;;5000062;28;20061;-75
2022/03/21 11:59:58;;;;;;;8.05;5.72;;;;;;;;;;5002548;28;20029;-76
2022/03/21 12:02:24;;;;;;;8.82;5.07;;;;;;;;;;5002586;28;20040;-76
2022/03/21 12:05:06;;;;;;;7.38;5.03;;;;;;;;;;5004389;28;20034;-75
2022/03/21 12:07:35;;;;;;;11.38;5.65;;;;;;;;;;5005962;28;20069;-77
2022/03/21 12:10:07;;;;;;;7.00;4.97;;;;;;;;;;4999021;28;20038;-78
2022/03/21 12:12:39;;;;;;;;;;;;;;;;;;5005115;28;20033;-75
2022/03/21 12:15:18;;;;;;;7.18;4.85;;;;;;;;;;5005074;28;19964;-78
2022/03/21 12:17:56;;;;;;;8.82;5.47;;;;;;;;;;5007195;28;20497;-77
2022/03/21 12:20:25;;;;;;;7.50;5.00;;;;;;;;;;5001250;28;20763;-79
2022/03/21 12:23:00;;;;;;;12.38;5.93;;;;;;;;;;5008822;28;20162;-76
2022/03/21 12:25:29;;;;;;;11.15;5.20;;;;;;;;;;5008151;28;20033;-77
2022/03/21 12:29:31;;;;;;;13.38;5.38;;;;;;;;;;5010977;28;20046;-76
2022/03/21 12:31:30;;;;;;;17.27;5.35;;;;;;;;;;5014919;28;20105;-77
2022/03/21 12:34:36;;;;;;;10.65;5.38;;;;;;;;;;5002085;28;20034;-76
2022/03/21 12:37:24;;;;;;;8.15;4.80;;;;;;;;;;5018064;28;20029;-77
2022/03/21 12:39:57;;;;;;;7.82;5.47;;;;;;;;;;5015501;28;20022;-76
2022/03/21 12:42:28;;;;;;;6.18;4.75;;;;;;;;;;5015461;28;20050;-76
2022/03/21 12:44:55;;;;;;;11.00;5.53;;;;;;;;;;5009571;28;20041;-76
2022/03/21 12:47:22;;;;;;;9.68;5.35;;;;;;;;;;5005897;28;20070;-77
2022/03/21 12:49:53;;;;;;;11.23;5.18;;;;;;;;;;5007030;28;20026;-75
2022/03/21 12:52:30;;;;;;;8.48;5.20;;;;;;;;;;5017306;28;20157;-76
2022/03/21 12:54:58;;;;;;;10.73;5.38;;;;;;;;;;5008860;28;20049;-78
2022/03/21 12:57:25;;;;;;;10.15;5.32;;;;;;;;;;5007276;28;20203;-76
2022/03/21 12:59:50;;;;;;;9.60;5.43;;;;;;;;;;5021957;28;20108;-77
2022/03/21 13:02:25;;;;;;;7.55;4.85;;;;;;;;;;5002710;28;20049;-78
2022/03/21 13:10:33;;;;;;;8.50;4.90;;;;;;;;;;4995533;28;20138;-76
2022/03/21 13:13:04;;;;;;;6.90;5.00;;;;;;;;;;5026997;28;20144;-80
2022/03/21 13:15:35;;;;;;;9.57;5.32;;;;;;;;;;5018562;28;20361;-79
2022/03/21 13:18:03;;;;;;;10.32;5.78;;;;;;;;;;5039473;28;20041;-76
2022/03/21 13:20:36;;;;;;;10.23;5.78;;;;;;;;;;5038833;28;20072;-77
2022/03/21 13:23:11;;;;;;;6.60;5.45;;;;;;;;;;5006327;28;20022;-78
2022/03/21 13:25:40;;;;;;;7.97;5.70;;;;;;;;;;5031670;28;20064;-76
2022/03/21 13:28:19;;;;;;;7.63;5.63;;;;;;;;;;5023518;28;21026;-77
2022/03/21 13:31:09;;;;;;;8.50;5.65;;;;;;;;;;5023354;28;20044;-77
2022/03/21 13:33:38;;;;;;;;;;;;;;;;;;5022561;28;20044;-79
2022/03/21 13:36:33;;;;;;;7.05;5.32;;;;;;;;;;5016268;28;20528;-78
2022/03/21 13:39:23;;;;;;;10.43;6.03;;;;;;;;;;5011470;28;20040;-77
2022/03/21 13:42:05;;;;;;;18.17;6.00;;;;;;;;;;5010764;28;20064;-77
2022/03/21 13:44:51;;;;;;;10.70;6.20;;;;;;;;;;5016402;28;20451;-81
2022/03/21 13:47:19;;;;;;;10.45;6.18;;;;;;;;;;5016677;28;20033;-78
2022/03/21 13:49:55;;;;;;;8.75;6.15;;;;;;;;;;5017324;28;20021;-77
2022/03/21 13:52:47;;;;;;;12.65;7.78;;;;;;;;;;5012581;28;20026;-77
2022/03/21 13:55:33;;;;;;;11.23;6.10;;;;;;;;;;5015368;28;20096;-80
2022/03/21 13:58:02;;;;;;;9.30;5.80;;;;;;;;;;5018050;28;20048;-79
2022/03/21 14:00:44;;;;;;;10.48;6.10;;;;;;;;;;5013852;28;20512;-77
2022/03/21 14:03:30;;;;;;;7.93;5.82;;;;;;;;;;5010440;28;20033;-77
2022/03/21 14:05:56;;;;;;;9.13;6.20;;;;;;;;;;5025672;28;20065;-76
2022/03/21 14:08:27;;;;;;;8.68;6.18;;;;;;;;;;5019651;28;20191;-78
2022/03/21 14:11:09;;;;;;;10.23;6.13;;;;;;;;;;5028458;28;20426;-79
2022/03/21 14:13:41;;;;;;;10.90;6.22;;;;;;;;;;5022097;28;20121;-79
2022/03/21 14:16:08;;;;;;;12.30;6.05;;;;;;;;;;5016783;28;20053;-80
2022/03/21 14:18:36;;;;;;;11.15;6.13;;;;;;;;;;5026107;28;20037;-79
2022/03/21 14:21:05;;;;;;;8.50;5.72;;;;;;;;;;5027496;28;20120;-78
2022/03/21 14:23:36;;;;;;;9.60;5.38;;;;;;;;;;5024669;28;20478;-78
2022/03/21 14:28:48;;;;;;;8.38;6.05;;;;;;;;;;5028320;28;20040;-78
2022/03/21 14:31:15;;;;;;;13.75;5.78;;;;;;;;;;5019829;28;21565;-78
2022/03/21 14:33:40;;;;;;;10.40;6.38;;;;;;;;;;5023123;28;20033;-79
2022/03/21 14:36:07;;;;;;;8.55;5.53;;;;;;;;;;5024217;28;20048;-79
2022/03/21 14:38:37;;;;;;;6.65;5.45;;;;;;;;;;5017113;28;20034;-80
2022/03/21 14:41:04;;;;;;;11.88;5.88;;;;;;;;;;5023568;28;20474;-80
2022/03/21 14:43:31;;;;;;;8.27;5.53;;;;;;;;;;5028271;28;20041;-76
2022/03/21 14:46:02;;;;;;;12.68;6.45;;;;;;;;;;5023995;28;20068;-78
2022/03/21 14:48:28;;;;;;;9.43;6.03;;;;;;;;;;5026245;28;20607;-80
2022/03/21 14:50:59;;;;;;;9.23;6.25;;;;;;;;;;5018926;28;20030;-79
2022/03/21 14:53:29;;;;;;;20.15;8.07;;;;;;;;;;5022875;28;20095;-77
2022/03/21 14:56:03;;;;;;;10.38;5.60;;;;;;;;;;5018431;28;20036;-79
2022/03/21 14:58:31;;;;;;;8.57;5.50;;;;;;;;;;5022248;28;20030;-78
2022/03/21 15:00:57;;;;;;;11.15;6.45;;;;;;;;;;5020284;28;20036;-79
2022/03/21 15:03:26;;;;;;;12.88;6.20;;;;;;;;;;5029326;28;20441;-79
2022/03/21 15:05:55;;;;;;;9.82;6.63;;;;;;;;;;5021074;28;20347;-79
2022/03/21 15:08:26;;;;;;;7.80;6.03;;;;;;;;;;5023574;28;20022;-79
2022/03/21 15:10:55;;;;;;;10.88;5.75;;;;;;;;;;5021608;28;20496;-79
2022/03/21 15:13:31;;;;;;;8.23;5.60;;;;;;;;;;5008620;28;20482;-80
2022/03/21 15:15:59;;;;;;;9.30;5.90;;;;;;;;;;5032434;28;20033;-79
2022/03/21 15:18:25;;;;;;;10.95;7.20;;;;;;;;;;5009606;28;20083;-78
2022/03/21 15:20:52;;;;;;;9.10;6.22;;;;;;;;;;5021778;28;20349;-77
2022/03/21 15:23:18;;;;;;;10.90;6.15;;;;;;;;;;5029769;28;20025;-77